Time;durP1;ratioP1;P1;durP2;ratioP2;P2;SDS_P1;SDS_P2;PMS_P1;PMS_P2;Temp;Humidity;BMP_temperature;BMP_pressure;BME280_temperature;BME280_humidity;BME280_pressure;Samples;Min_cycle;Max_cycle;Signal;HPM_P1;HPM_P2
2024/03/10 00:01:09;;;;;;;3.53;2.35;;;;;;;6.71;57.91;91146.84;2071538;69;20214;-74
2024/03/10 00:03:36;;;;;;;5.72;2.60;;;;;;;6.70;58.24;91129.34;2071557;69;20164;-75
2024/03/10 00:09:50;;;;;;;4.18;2.33;;;;;;;6.35;59.78;91110.13;2072056;69;20182;-76
2024/03/10 00:12:16;;;;;;;5.10;2.00;;;;;;;6.52;59.16;91106.06;2071735;69;20174;-77
2024/03/10 00:14:41;;;;;;;3.40;1.88;;;;;;;6.59;57.94;91091.03;2068340;69;20152;-75
2024/03/10 00:17:09;;;;;;;6.80;2.42;;;;;;;5.48;62.13;91109.81;2071723;69;20144;-75
2024/03/10 00:19:36;;;;;;;7.85;2.53;;;;;;;5.95;60.58;91086.44;2068321;69;20168;-74
2024/03/10 00:22:02;;;;;;;3.88;2.42;;;;;;;5.76;60.80;91090.31;2071622;69;20581;-76
2024/03/10 00:24:27;;;;;;;3.88;2.20;;;;;;;6.11;59.75;91090.78;2067909;69;20137;-75
2024/03/10 00:30:40;;;;;;;3.53;1.63;;;;;;;6.15;59.62;91087.47;2071779;69;20208;-77
2024/03/10 00:33:06;;;;;;;5.63;1.77;;;;;;;6.29;58.39;91101.44;2071717;69;20587;-75
2024/03/10 00:35:33;;;;;;;4.18;2.00;;;;;;;6.11;59.69;91098.44;2071620;69;20144;-76
2024/03/10 00:37:59;;;;;;;3.97;2.47;;;;;;;5.64;60.72;91086.91;2071343;69;20154;-74
2024/03/10 00:40:25;;;;;;;4.03;2.22;;;;;;;5.69;60.84;91091.38;2071480;69;20144;-77
2024/03/10 00:42:50;;;;;;;6.25;2.50;;;;;;;5.95;59.59;91092.75;2071677;69;20152;-76
2024/03/10 00:45:17;;;;;;;3.45;2.10;;;;;;;6.01;59.92;91081.91;2067939;69;20160;-74
2024/03/10 00:47:43;;;;;;;3.28;2.08;;;;;;;6.09;58.71;91079.53;2071652;69;20152;-75
2024/03/10 00:50:08;;;;;;;4.25;2.00;;;;;;;6.01;60.07;91070.72;2071566;69;20152;-75
2024/03/10 00:52:35;;;;;;;3.30;1.85;;;;;;;6.01;59.08;91086.75;2071468;69;20132;-74
2024/03/10 00:55:01;;;;;;;2.78;1.70;;;;;;;6.10;58.11;91078.16;2071513;69;20196;-75
2024/03/10 00:57:27;;;;;;;3.63;2.33;;;;;;;5.16;62.61;91066.94;2071678;69;20191;-78
2024/03/10 00:59:53;;;;;;;3.90;1.92;;;;;;;5.50;62.05;91067.34;2071511;69;20206;-74
2024/03/10 01:02:20;;;;;;;2.70;1.60;;;;;;;5.66;61.12;91062.59;2071476;69;20167;-74
2024/03/10 01:04:46;;;;;;;3.13;1.80;;;;;;;5.66;60.91;91067.47;2071522;69;20244;-77
2024/03/10 01:07:12;;;;;;;4.50;1.88;;;;;;;5.73;61.01;91058.06;2071572;69;20221;-74
2024/03/10 01:09:37;;;;;;;3.45;1.98;;;;;;;5.82;60.14;91057.16;2068024;69;20563;-73
2024/03/10 01:12:03;;;;;;;4.63;1.95;;;;;;;5.71;60.67;91057.97;2067995;69;20163;-75
2024/03/10 01:14:29;;;;;;;5.05;2.10;;;;;;;5.71;59.85;91057.97;2071691;69;20155;-77
2024/03/10 01:16:55;;;;;;;4.18;1.80;;;;;;;5.70;60.53;91051.66;2071508;69;20147;-76
2024/03/10 01:19:20;;;;;;;3.08;1.98;;;;;;;5.20;62.36;91047.63;2068120;69;20302;-73
2024/03/10 01:21:46;;;;;;;3.63;1.98;;;;;;;4.81;63.76;91056.72;2071598;69;20588;-75
2024/03/10 01:24:12;;;;;;;3.90;2.00;;;;;;;5.16;62.72;91041.84;2071464;69;20263;-77
2024/03/10 01:26:39;;;;;;;3.67;1.92;;;;;;;5.51;61.41;91046.47;2071550;69;20596;-76
2024/03/10 01:29:08;;;;;;;4.13;1.92;;;;;;;5.61;60.44;91044.19;2071306;69;20180;-75
2024/03/10 01:31:33;;;;;;;3.67;1.80;;;;;;;5.46;60.66;91028.78;2071452;69;20141;-76
2024/03/10 01:33:59;;;;;;;4.13;1.77;;;;;;;4.66;63.77;91046.13;2067936;69;20256;-74
2024/03/10 01:36:25;;;;;;;3.50;1.80;;;;;;;5.28;62.46;91039.72;2068115;69;20615;-74
2024/03/10 01:38:50;;;;;;;2.78;1.77;;;;;;;5.31;61.34;91032.91;2071371;69;20185;-75
2024/03/10 01:41:16;;;;;;;2.88;1.60;;;;;;;5.05;63.08;91023.13;2067913;69;20155;-76
2024/03/10 01:43:43;;;;;;;3.78;1.55;;;;;;;5.33;61.52;91026.69;2071533;69;20685;-74
2024/03/10 01:46:11;;;;;;;3.10;1.67;;;;;;;5.45;60.87;91023.81;2071527;69;20522;-76
2024/03/10 01:48:39;;;;;;;3.85;1.70;;;;;;;5.40;60.86;91011.72;2071302;69;20600;-74
2024/03/10 01:51:06;;;;;;;1.67;1.20;;;;;;;5.26;60.70;90997.75;2071983;69;20160;-74
2024/03/10 01:53:32;;;;;;;4.47;1.80;;;;;;;4.85;62.98;91000.44;2071970;69;20147;-76
2024/03/10 01:56:05;;;;;;;4.38;1.70;;;;;;;5.23;61.68;90998.28;2072089;69;20315;-76
2024/03/10 01:58:31;;;;;;;;;;;;;;;5.28;60.98;90989.50;2068746;69;20152;-74
2024/03/10 02:01:03;;;;;;;2.45;1.50;;;;;;;5.05;62.35;90982.00;2068410;69;20041;-76
2024/03/10 02:07:18;;;;;;;2.45;1.48;;;;;;;4.91;63.55;90966.59;2071577;69;20618;-74
2024/03/10 02:09:44;;;;;;;3.90;1.30;;;;;;;4.92;62.14;90971.56;2068161;69;20145;-75
2024/03/10 02:12:11;;;;;;;2.67;1.48;;;;;;;4.82;62.94;90966.16;2071480;69;20151;-75
2024/03/10 02:14:40;;;;;;;3.15;1.70;;;;;;;4.85;62.62;90966.97;2071959;69;20508;-76
2024/03/10 02:17:10;;;;;;;3.15;1.83;;;;;;;4.59;62.74;90963.53;2071890;69;20199;-74
2024/03/10 02:19:37;;;;;;;3.65;1.60;;;;;;;4.55;64.43;90947.31;2071682;69;20171;-74
2024/03/10 02:22:07;;;;;;;2.85;1.83;;;;;;;4.90;62.37;90946.34;2071944;69;20222;-73
2024/03/10 02:24:40;;;;;;;1.75;1.50;;;;;;;4.75;62.97;90949.72;2072038;69;20144;-74
2024/03/10 02:27:07;;;;;;;;;;;;;;;4.93;62.71;90942.31;2071238;69;20180;-74
2024/03/10 02:47:15;;;;;;;2.83;1.52;;;;;;;4.78;61.87;90901.84;2071930;69;20604;-74
2024/03/10 02:49:42;;;;;;;2.55;1.40;;;;;;;3.95;65.58;90922.41;2071493;69;20154;-76
2024/03/10 02:52:08;;;;;;;4.70;1.58;;;;;;;4.39;63.88;90915.75;2071581;69;20688;-75
2024/03/10 02:54:35;;;;;;;2.10;1.30;;;;;;;4.58;63.36;90909.09;2071706;69;20152;-76
2024/03/10 02:57:02;;;;;;;1.98;1.40;;;;;;;4.56;63.17;90906.94;2071633;69;20140;-76
2024/03/10 02:59:29;;;;;;;3.30;1.52;;;;;;;4.61;63.07;90907.88;2071229;69;20192;-74
2024/03/10 03:01:55;;;;;;;2.40;1.60;;;;;;;4.70;62.45;90893.03;2070990;69;20242;-72
2024/03/10 03:04:21;;;;;;;2.50;1.60;;;;;;;4.27;64.51;90904.69;2071549;69;20254;-74
2024/03/10 03:06:47;;;;;;;2.28;1.70;;;;;;;4.45;63.77;90887.53;2071726;69;20243;-77
2024/03/10 03:09:13;;;;;;;3.75;1.80;;;;;;;4.44;63.39;90877.69;2068378;69;20601;-73
2024/03/10 03:11:40;;;;;;;4.63;1.40;;;;;;;3.83;65.40;90881.41;2068389;69;20867;-74
2024/03/10 03:14:08;;;;;;;3.92;1.55;;;;;;;4.24;64.64;90872.50;2071573;69;20168;-73
2024/03/10 03:16:34;;;;;;;2.72;1.60;;;;;;;3.75;65.02;90855.91;2071502;69;20178;-76
2024/03/10 03:19:00;;;;;;;2.92;1.67;;;;;;;3.41;68.57;90870.69;2071653;69;20136;-75
2024/03/10 03:21:26;;;;;;;4.90;1.50;;;;;;;4.06;66.28;90847.16;2071696;69;20199;-76
2024/03/10 03:23:53;;;;;;;2.20;1.33;;;;;;;4.24;65.67;90846.72;2068167;69;20172;-74
2024/03/10 03:26:19;;;;;;;3.45;1.60;;;;;;;3.64;67.46;90873.38;2071826;69;20198;-74
2024/03/10 03:28:44;;;;;;;3.00;1.70;;;;;;;4.02;65.81;90855.28;2071844;69;20218;-75
2024/03/10 03:31:10;;;;;;;2.72;1.67;;;;;;;3.86;65.77;90854.41;2071820;69;20148;-74
2024/03/10 03:33:35;;;;;;;4.05;1.67;;;;;;;4.20;64.67;90857.63;2071483;69;20265;-76
2024/03/10 03:36:02;;;;;;;4.22;1.50;;;;;;;3.92;65.45;90859.59;2068506;69;20179;-76
2024/03/10 03:38:27;;;;;;;3.58;1.70;;;;;;;4.11;65.01;90864.09;2065532;69;20149;-74
2024/03/10 03:40:53;;;;;;;3.25;1.67;;;;;;;4.17;65.29;90862.38;2068516;69;20140;-74
2024/03/10 03:43:19;;;;;;;3.28;1.60;;;;;;;4.05;64.61;90842.22;2071669;69;20152;-74
2024/03/10 03:45:44;;;;;;;3.40;1.50;;;;;;;4.16;65.09;90854.63;2071610;69;20221;-74
2024/03/10 03:51:57;;;;;;;3.53;1.60;;;;;;;4.25;64.30;90846.09;2071584;69;20204;-76
2024/03/10 03:54:24;;;;;;;2.05;1.30;;;;;;;3.72;65.78;90848.78;2071800;69;20132;-76
2024/03/10 03:56:50;;;;;;;3.42;1.90;;;;;;;3.55;66.80;90849.22;2071862;69;20232;-74
2024/03/10 03:59:15;;;;;;;5.90;1.60;;;;;;;3.80;66.21;90845.72;2071797;69;20163;-74
2024/03/10 04:01:42;;;;;;;2.90;1.55;;;;;;;3.87;66.77;90853.09;2071456;69;20607;-76
2024/03/10 04:04:07;;;;;;;4.60;1.60;;;;;;;3.96;65.05;90865.38;2071709;69;20220;-74
2024/03/10 04:06:33;;;;;;;3.40;1.75;;;;;;;4.04;64.94;90835.22;2071761;69;20253;-76
2024/03/10 04:08:59;;;;;;;1.95;1.40;;;;;;;3.78;66.17;90870.66;2068313;69;20136;-76
2024/03/10 04:11:25;;;;;;;5.10;1.48;;;;;;;3.86;66.03;90828.66;2068214;69;20137;-76
2024/03/10 04:13:50;;;;;;;6.35;1.40;;;;;;;3.68;66.07;90820.03;2071415;69;20141;-77
2024/03/10 04:16:16;;;;;;;2.42;1.25;;;;;;;3.21;69.17;90843.16;2071623;69;20159;-74
2024/03/10 04:18:43;;;;;;;3.08;1.70;;;;;;;3.54;68.49;90837.38;2071414;69;20148;-76
2024/03/10 04:21:08;;;;;;;2.17;1.30;;;;;;;3.95;66.74;90802.69;2071705;69;20222;-75
2024/03/10 04:23:36;;;;;;;2.67;1.58;;;;;;;3.67;67.76;90796.31;2068640;69;20183;-76
2024/03/10 04:26:02;;;;;;;2.85;1.65;;;;;;;3.92;66.92;90792.78;2071745;69;20545;-75
2024/03/10 04:28:28;;;;;;;2.63;1.48;;;;;;;4.10;65.73;90781.91;2068302;69;20155;-74
2024/03/10 04:30:57;;;;;;;2.63;1.60;;;;;;;3.98;66.28;90776.41;2071362;69;20151;-73
2024/03/10 04:33:23;;;;;;;2.47;1.92;;;;;;;4.14;65.28;90741.06;2071272;69;20140;-75
2024/03/10 04:35:48;;;;;;;2.58;1.40;;;;;;;4.00;66.39;90763.31;2071303;69;20141;-74
2024/03/10 04:38:14;;;;;;;3.90;1.60;;;;;;;3.54;67.79;90770.59;2071501;69;20183;-75
2024/03/10 04:40:44;;;;;;;3.92;1.50;;;;;;;3.97;65.98;90780.53;2071394;69;20206;-78
2024/03/10 04:43:10;;;;;;;1.70;1.30;;;;;;;4.01;66.55;90781.47;2071583;69;20263;-75
2024/03/10 04:45:36;;;;;;;2.42;1.55;;;;;;;3.68;67.04;90795.69;2071337;69;20175;-76
2024/03/10 04:48:02;;;;;;;3.10;1.75;;;;;;;3.93;66.50;90778.25;2071552;69;20289;-76
2024/03/10 04:50:29;;;;;;;4.95;2.15;;;;;;;3.75;67.42;90791.91;2071582;69;20248;-76
2024/03/10 04:52:57;;;;;;;8.65;4.60;;;;;;;3.90;66.54;90754.44;2071380;69;20152;-75
2024/03/10 04:55:23;;;;;;;3.08;1.70;;;;;;;3.67;67.28;90785.91;2071571;69;20176;-76
2024/03/10 04:57:49;;;;;;;3.17;1.90;;;;;;;3.83;67.15;90764.50;2071681;69;20156;-73
2024/03/10 05:00:18;;;;;;;4.53;1.90;;;;;;;4.14;65.57;90784.91;2067962;69;20141;-75
2024/03/10 05:02:47;;;;;;;3.17;1.90;;;;;;;3.73;67.64;90791.06;2071351;69;20152;-76
2024/03/10 05:05:15;;;;;;;3.70;1.67;;;;;;;4.02;65.93;90760.63;2071577;69;20141;-76
2024/03/10 05:07:41;;;;;;;1.70;1.17;;;;;;;4.10;65.48;90773.56;2071655;69;20213;-74
2024/03/10 05:10:07;;;;;;;3.05;2.20;;;;;;;3.89;67.20;90783.59;2071468;69;20152;-74
2024/03/10 05:12:34;;;;;;;3.25;1.98;;;;;;;4.14;65.25;90790.47;2071357;69;20148;-76
2024/03/10 05:15:00;;;;;;;8.43;4.90;;;;;;;3.97;66.34;90794.44;2071530;69;20149;-76
2024/03/10 05:17:25;;;;;;;9.68;4.38;;;;;;;4.10;65.89;90788.19;2071411;69;20528;-74
2024/03/10 05:19:51;;;;;;;5.30;3.15;;;;;;;4.29;65.24;90773.88;2071611;69;20156;-74
2024/03/10 05:22:17;;;;;;;5.78;2.70;;;;;;;4.17;64.83;90769.72;2070881;69;20140;-75
2024/03/10 05:24:42;;;;;;;10.27;5.55;;;;;;;3.98;66.35;90774.34;2071356;69;20278;-72
2024/03/10 05:30:55;;;;;;;6.85;3.22;;;;;;;4.26;65.51;90766.03;2070968;69;20130;-74
2024/03/10 05:33:21;;;;;;;5.82;2.67;;;;;;;4.20;65.00;90754.59;2071263;69;20144;-73
2024/03/10 05:35:49;;;;;;;6.80;4.35;;;;;;;3.58;67.23;90770.09;2071466;69;20144;-76
2024/03/10 05:38:15;;;;;;;5.03;2.88;;;;;;;3.88;66.78;90776.59;2071233;69;20160;-73
2024/03/10 05:40:41;;;;;;;5.25;3.22;;;;;;;4.08;65.80;90754.69;2071573;69;20163;-73
2024/03/10 05:43:08;;;;;;;5.05;3.17;;;;;;;4.16;65.80;90754.38;2071490;69;20522;-73
2024/03/10 05:45:34;;;;;;;8.15;3.40;;;;;;;3.69;67.47;90758.19;2071369;69;20144;-73
2024/03/10 05:48:00;;;;;;;3.70;2.28;;;;;;;4.11;66.36;90739.50;2071180;69;20177;-77
2024/03/10 05:50:26;;;;;;;4.53;2.00;;;;;;;4.26;66.48;90732.59;2067832;69;20168;-74
2024/03/10 05:52:52;;;;;;;4.00;2.08;;;;;;;4.15;66.43;90748.09;2071220;69;20171;-77
2024/03/10 05:55:19;;;;;;;3.55;2.25;;;;;;;4.21;66.43;90753.25;2071343;69;20148;-75
2024/03/10 05:57:45;;;;;;;4.45;2.53;;;;;;;3.90;66.71;90732.16;2065248;69;20160;-77
2024/03/10 06:00:14;;;;;;;3.70;2.33;;;;;;;4.26;65.77;90725.00;2071272;69;20144;-76
2024/03/10 06:02:44;;;;;;;5.45;2.60;;;;;;;4.25;65.61;90731.88;2071321;69;20147;-77
2024/03/10 06:05:13;;;;;;;17.05;6.95;;;;;;;3.90;67.59;90728.66;2071552;69;20172;-74
2024/03/10 06:07:42;;;;;;;8.85;4.32;;;;;;;4.25;66.49;90717.97;2067979;69;20136;-76
2024/03/10 06:10:12;;;;;;;11.10;5.38;;;;;;;4.01;67.55;90745.28;2068029;69;20156;-74
2024/03/10 06:12:42;;;;;;;11.80;4.28;;;;;;;4.44;66.07;90714.03;2070736;69;20152;-77
2024/03/10 06:15:10;;;;;;;6.05;3.72;;;;;;;4.27;66.67;90734.06;2071469;69;20139;-75
2024/03/10 06:17:36;;;;;;;7.32;4.20;;;;;;;4.28;66.34;90749.44;2067988;69;20588;-77
2024/03/10 06:25:32;;;;;;;8.85;4.20;;;;;;;4.37;66.28;90706.00;2071661;69;20232;-75
2024/03/10 06:27:57;;;;;;;7.20;3.35;;;;;;;3.90;67.47;90745.38;2071626;69;20129;-76
2024/03/10 06:30:23;;;;;;;8.68;4.57;;;;;;;4.32;66.62;90758.00;2071617;69;20191;-77
2024/03/10 06:36:50;;;;;;;6.82;3.58;;;;;;;4.54;66.22;90744.50;2070850;69;20179;-74
2024/03/10 06:39:19;;;;;;;5.15;3.15;;;;;;;4.76;65.58;90736.53;2068655;69;20194;-73
2024/03/10 06:41:47;;;;;;;5.75;3.58;;;;;;;4.26;67.11;90763.25;2072117;69;20236;-76
2024/03/10 06:48:01;;;;;;;7.18;3.72;;;;;;;4.88;64.77;90744.78;2071897;69;20131;-76
2024/03/10 06:50:28;;;;;;;5.20;2.60;;;;;;;4.88;65.65;90705.75;2065865;69;20168;-78
2024/03/10 06:52:54;;;;;;;7.95;4.10;;;;;;;4.34;67.20;90750.47;2068628;69;20196;-78
2024/03/10 06:55:19;;;;;;;8.45;4.75;;;;;;;4.92;65.75;90728.25;2068644;69;20174;-77
2024/03/10 06:57:46;;;;;;;8.70;3.53;;;;;;;5.12;65.00;90751.56;2071578;69;20140;-76
2024/03/10 07:00:12;;;;;;;6.18;3.30;;;;;;;5.20;64.42;90721.28;2071837;69;20160;-76
2024/03/10 07:02:45;;;;;;;6.60;3.38;;;;;;;4.96;64.58;90723.59;2068452;69;20149;-76
2024/03/10 07:05:12;;;;;;;5.15;3.45;;;;;;;5.25;63.68;90736.84;2072077;69;20222;-76
2024/03/10 07:07:37;;;;;;;5.70;3.22;;;;;;;5.47;63.53;90697.41;2068261;69;20531;-77
2024/03/10 07:10:04;;;;;;;5.47;3.45;;;;;;;4.96;65.05;90717.31;2071568;69;20157;-77
2024/03/10 07:12:30;;;;;;;5.55;3.10;;;;;;;5.21;65.29;90708.03;2071764;69;20147;-75
2024/03/10 07:14:57;;;;;;;2.83;2.10;;;;;;;5.39;64.44;90702.63;2071892;69;20176;-77
2024/03/10 07:17:27;;;;;;;6.07;2.78;;;;;;;5.89;63.01;90697.94;2071905;69;20221;-76
2024/03/10 07:19:52;;;;;;;6.50;2.45;;;;;;;6.07;62.56;90704.38;2071918;69;20144;-75
2024/03/10 07:22:18;;;;;;;4.55;3.00;;;;;;;6.18;62.37;90685.97;2071858;69;20218;-74
2024/03/10 07:24:44;;;;;;;7.35;3.60;;;;;;;6.23;61.86;90721.13;2071914;69;20229;-78
2024/03/10 07:27:10;;;;;;;6.15;3.88;;;;;;;6.61;61.10;90703.25;2071911;69;20580;-75
2024/03/10 07:29:37;;;;;;;7.47;3.40;;;;;;;5.86;63.19;90717.41;2071900;69;20139;-74
2024/03/10 07:32:04;;;;;;;5.47;2.72;;;;;;;6.54;61.84;90743.47;2071804;69;20599;-76
2024/03/10 07:34:31;;;;;;;3.90;2.33;;;;;;;6.88;60.72;90755.44;2068545;69;20148;-76
2024/03/10 07:36:56;;;;;;;3.88;2.25;;;;;;;6.66;60.36;90743.28;2071813;69;20647;-74
2024/03/10 07:39:23;;;;;;;3.38;1.60;;;;;;;6.81;59.47;90728.56;2072102;69;20145;-76
2024/03/10 07:41:48;;;;;;;3.58;2.50;;;;;;;6.34;60.69;90743.31;2071968;69;20241;-75
2024/03/10 07:44:15;;;;;;;7.05;3.00;;;;;;;6.85;60.39;90720.34;2068272;69;20144;-77
2024/03/10 07:46:41;;;;;;;5.90;2.30;;;;;;;7.39;58.81;90723.25;2068494;69;20228;-77
2024/03/10 07:49:06;;;;;;;3.10;2.00;;;;;;;7.27;59.92;90739.53;2071864;69;20158;-76
2024/03/10 07:51:33;;;;;;;2.53;1.85;;;;;;;7.58;59.43;90719.09;2071644;69;20160;-80
2024/03/10 07:54:01;;;;;;;2.33;1.73;;;;;;;7.68;58.15;90716.69;2068212;69;20133;-78
2024/03/10 07:56:27;;;;;;;7.68;2.53;;;;;;;6.97;59.35;90728.53;2071769;69;20261;-78
2024/03/10 07:58:54;;;;;;;6.53;2.38;;;;;;;7.51;59.72;90711.81;2071933;69;20534;-75
2024/03/10 08:01:20;;;;;;;4.10;2.60;;;;;;;7.57;58.98;90728.88;2071762;69;20144;-78
2024/03/10 08:03:45;;;;;;;5.13;3.10;;;;;;;7.37;58.65;90737.16;2071459;69;20182;-75
2024/03/10 08:06:11;;;;;;;6.70;2.38;;;;;;;7.49;58.81;90706.13;2071820;69;20152;-78
2024/03/10 08:08:37;;;;;;;3.83;2.92;;;;;;;7.02;59.84;90721.75;2068443;69;20153;-77
2024/03/10 08:11:03;;;;;;;6.05;3.55;;;;;;;7.69;58.57;90712.53;2068496;69;20220;-77
2024/03/10 08:13:30;;;;;;;7.82;4.32;;;;;;;8.09;57.85;90699.34;2071802;69;20156;-80
2024/03/10 08:19:43;;;;;;;5.63;3.38;;;;;;;8.27;58.04;90693.72;2071877;69;20139;-76
2024/03/10 08:22:09;;;;;;;7.00;3.05;;;;;;;8.29;57.70;90676.97;2071836;69;20144;-78
2024/03/10 08:24:37;;;;;;;5.95;3.90;;;;;;;8.14;58.65;90689.72;2068369;69;20137;-78
2024/03/10 08:27:03;;;;;;;5.25;3.22;;;;;;;8.59;56.17;90682.97;2065859;69;20503;-80
2024/03/10 08:29:28;;;;;;;4.82;2.40;;;;;;;8.59;56.86;90699.09;2071838;69;20210;-80
2024/03/10 08:31:55;;;;;;;5.10;3.22;;;;;;;8.59;56.33;90643.00;2071796;69;20413;-81
2024/03/10 08:34:20;;;;;;;3.20;1.92;;;;;;;8.42;56.76;90661.31;2071902;69;20129;-82
2024/03/10 08:36:47;;;;;;;7.78;3.55;;;;;;;8.49;56.84;90671.41;2071860;69;20153;-80
2024/03/10 08:39:16;;;;;;;11.15;6.20;;;;;;;8.67;55.57;90642.56;2071753;69;20221;-81
2024/03/10 08:41:43;;;;;;;8.20;4.03;;;;;;;9.09;55.62;90682.56;2068359;69;20159;-77
2024/03/10 08:44:11;;;;;;;3.15;2.40;;;;;;;9.13;55.97;90640.63;2071802;69;20140;-79
2024/03/10 08:46:37;;;;;;;2.83;1.50;;;;;;;9.21;55.37;90642.94;2071774;69;20168;-79
2024/03/10 08:49:02;;;;;;;6.57;4.28;;;;;;;8.99;54.86;90671.00;2071424;69;20586;-79
2024/03/10 08:51:29;;;;;;;5.60;3.05;;;;;;;9.48;53.84;90664.91;2071666;69;20586;-82
2024/03/10 08:53:54;;;;;;;4.47;2.90;;;;;;;9.65;53.68;90680.19;2071731;69;20156;-79
2024/03/10 08:56:20;;;;;;;3.50;2.40;;;;;;;9.79;53.66;90627.25;2071693;69;20645;-79
2024/03/10 08:58:45;;;;;;;3.83;2.10;;;;;;;9.90;52.02;90653.56;2071660;69;20496;-77
2024/03/10 09:01:12;;;;;;;5.07;2.10;;;;;;;10.02;52.56;90653.19;2068348;69;20145;-77
2024/03/10 09:03:38;;;;;;;10.70;4.90;;;;;;;9.90;52.93;90643.03;2071642;69;20243;-79
2024/03/10 09:06:04;;;;;;;9.20;3.20;;;;;;;9.99;52.62;90646.81;2068478;69;20227;-79
2024/03/10 09:12:18;;;;;;;7.70;4.45;;;;;;;10.42;52.02;90650.88;2071706;69;20119;-81
2024/03/10 09:14:44;;;;;;;6.80;3.67;;;;;;;10.88;51.76;90645.13;2065600;69;20140;-79
2024/03/10 09:17:10;;;;;;;8.07;2.83;;;;;;;10.90;50.36;90619.81;2071481;69;20606;-78
2024/03/10 09:19:37;;;;;;;3.58;2.10;;;;;;;10.96;51.20;90648.16;2071761;69;20155;-78
2024/03/10 09:22:02;;;;;;;6.32;3.30;;;;;;;11.29;50.44;90637.72;2071629;69;20236;-76
2024/03/10 09:24:28;;;;;;;4.40;2.70;;;;;;;11.29;49.64;90641.25;2071623;69;20231;-78
2024/03/10 09:26:56;;;;;;;3.22;1.70;;;;;;;11.31;49.49;90658.19;2071301;69;20234;-77
2024/03/10 09:29:29;;;;;;;8.07;3.03;;;;;;;10.76;50.21;90631.41;2071673;69;20152;-77
2024/03/10 09:31:56;;;;;;;1.73;1.42;;;;;;;11.50;49.83;90634.03;2071683;69;20769;-78
2024/03/10 09:34:24;;;;;;;3.88;2.10;;;;;;;11.44;48.88;90645.84;2071548;69;20221;-77
2024/03/10 09:36:51;;;;;;;2.80;1.60;;;;;;;11.76;48.74;90644.47;2071338;69;20148;-77
2024/03/10 09:39:17;;;;;;;1.85;1.38;;;;;;;11.94;49.37;90625.91;2071762;69;20156;-76
2024/03/10 09:41:44;;;;;;;1.90;1.17;;;;;;;12.06;48.74;90664.22;2071555;69;20136;-79
2024/03/10 09:44:22;;;;;;;3.38;1.40;;;;;;;12.16;48.96;90622.88;2071491;69;20152;-78
2024/03/10 09:46:52;;;;;;;3.08;1.20;;;;;;;12.79;46.75;90617.81;2071578;69;20145;-77
2024/03/10 09:49:20;;;;;;;2.97;1.65;;;;;;;12.64;46.76;90630.91;2071631;69;20152;-75
2024/03/10 09:51:51;;;;;;;2.22;1.40;;;;;;;12.79;46.51;90657.31;2071550;69;20148;-76
2024/03/10 09:54:17;;;;;;;1.83;1.40;;;;;;;12.75;47.31;90614.19;2071145;69;20247;-77
2024/03/10 10:00:31;;;;;;;1.80;1.27;;;;;;;12.63;46.06;90618.19;2071541;69;20182;-74
2024/03/10 10:03:18;;;;;;;1.15;0.80;;;;;;;12.58;45.29;90596.22;2071456;69;20152;-76
2024/03/10 10:05:46;;;;;;;1.10;0.80;;;;;;;12.75;45.51;90588.78;2071514;69;20235;-74
2024/03/10 10:08:14;;;;;;;0.75;0.68;;;;;;;12.71;44.07;90583.78;2071488;69;20184;-77
2024/03/10 10:10:43;;;;;;;1.98;0.75;;;;;;;13.04;43.02;90593.53;2072041;69;20239;-75
2024/03/10 10:13:23;;;;;;;0.60;0.50;;;;;;;13.37;43.05;90577.19;2072056;69;20140;-76
2024/03/10 10:15:49;;;;;;;1.20;0.20;;;;;;;13.28;42.28;90564.31;2072028;69;20148;-78
2024/03/10 10:18:15;;;;;;;1.65;0.40;;;;;;;13.47;42.06;90572.44;2071969;69;20524;-76
2024/03/10 10:20:45;;;;;;;0.35;0.20;;;;;;;13.49;41.94;90563.25;2068563;69;20148;-76
2024/03/10 10:23:11;;;;;;;0.25;0.20;;;;;;;13.68;42.09;90596.06;2071945;69;20347;-76
2024/03/10 10:25:37;;;;;;;1.58;0.20;;;;;;;13.47;42.62;90561.13;2072199;69;20239;-75
2024/03/10 10:28:02;;;;;;;2.65;0.20;;;;;;;13.45;41.50;90568.84;2071878;69;20199;-77
2024/03/10 10:30:29;;;;;;;0.75;0.20;;;;;;;13.56;41.18;90576.09;2071924;69;20511;-79
2024/03/10 10:33:08;;;;;;;2.28;0.30;;;;;;;13.75;41.39;90574.28;2071755;69;20175;-76
2024/03/10 10:35:42;;;;;;;1.45;0.20;;;;;;;13.76;40.38;90603.25;2071840;69;20140;-77
2024/03/10 10:38:12;;;;;;;2.85;0.20;;;;;;;13.79;40.75;90570.78;2072005;69;20585;-77
2024/03/10 10:40:41;;;;;;;1.02;0.10;;;;;;;14.05;39.97;90604.38;2071946;69;20156;-76
2024/03/10 10:43:09;;;;;;;4.75;0.10;;;;;;;14.07;40.26;90581.81;2071914;69;20172;-77
2024/03/10 10:45:35;;;;;;;0.20;0.20;;;;;;;14.05;40.15;90579.66;2071869;69;20159;-76
2024/03/10 10:48:01;;;;;;;2.53;0.30;;;;;;;14.19;40.27;90596.81;2071477;69;20159;-75
2024/03/10 10:50:33;;;;;;;1.48;0.30;;;;;;;14.40;40.42;90591.44;2071869;69;20164;-74
2024/03/10 10:53:01;;;;;;;;;;;;;;;14.71;39.30;90587.63;2068620;69;20145;-76
2024/03/10 10:55:29;;;;;;;1.23;0.13;;;;;;;14.92;39.26;90621.81;2071927;69;20084;-74
2024/03/10 10:57:59;;;;;;;2.05;0.30;;;;;;;15.32;38.13;90570.53;2071882;69;20692;-75
2024/03/10 11:00:28;;;;;;;0.20;0.10;;;;;;;15.56;37.21;90606.91;2072459;69;20152;-77
2024/03/10 11:03:16;;;;;;;0.20;0.20;;;;;;;15.28;36.97;90606.63;2072267;69;20156;-74
2024/03/10 11:06:08;;;;;;;5.38;0.30;;;;;;;15.93;37.16;90590.22;2071890;69;20225;-74
2024/03/10 11:08:35;;;;;;;0.30;0.20;;;;;;;16.43;36.99;90643.06;2071949;69;20149;-74
2024/03/10 11:11:05;;;;;;;1.65;0.20;;;;;;;17.07;35.46;90615.72;2071936;69;20149;-73
2024/03/10 11:13:33;;;;;;;2.20;0.17;;;;;;;16.89;36.17;90619.91;2072235;69;20207;-74
2024/03/10 11:16:06;;;;;;;0.20;0.03;;;;;;;18.22;36.04;90595.28;2072071;69;20172;-78
2024/03/10 11:18:32;;;;;;;;;;;;;;;17.23;35.13;90607.25;2072041;69;20151;-75
2024/03/10 11:21:00;;;;;;;1.02;0.10;;;;;;;16.46;35.90;90636.72;2071854;69;20044;-78
2024/03/10 11:23:36;;;;;;;0.28;0.10;;;;;;;15.97;36.72;90635.66;2071886;69;20167;-78
2024/03/10 11:26:06;;;;;;;0.60;0.10;;;;;;;15.94;37.80;90602.97;2071875;69;20260;-79
2024/03/10 11:28:49;;;;;;;2.92;0.30;;;;;;;16.15;37.52;90669.13;2071771;69;20235;-77
2024/03/10 11:31:19;;;;;;;0.80;0.10;;;;;;;15.45;37.62;90639.41;2071805;69;20147;-75
2024/03/10 11:33:49;;;;;;;0.73;0.10;;;;;;;15.72;37.60;90641.13;2071723;69;20608;-77
2024/03/10 11:36:16;;;;;;;0.00;0.00;;;;;;;15.94;37.28;90637.03;2071671;69;20150;-77
2024/03/10 11:38:42;;;;;;;0.00;0.00;;;;;;;15.91;37.85;90624.97;2071617;69;20149;-76
2024/03/10 11:41:08;;;;;;;0.10;0.10;;;;;;;15.73;38.05;90602.13;2071655;69;20184;-79
2024/03/10 11:43:36;;;;;;;0.00;0.00;;;;;;;15.63;38.84;90616.19;2068330;69;20677;-75
2024/03/10 11:46:24;;;;;;;1.05;0.10;;;;;;;15.66;38.27;90604.19;2071723;69;20236;-76
2024/03/10 11:48:57;;;;;;;2.60;0.03;;;;;;;15.71;38.43;90594.31;2071762;69;20172;-77
2024/03/10 11:51:29;;;;;;;0.43;0.20;;;;;;;15.27;38.23;90599.53;2071810;69;20213;-76
2024/03/10 11:53:59;;;;;;;0.05;0.00;;;;;;;15.67;38.71;90576.56;2071735;69;20147;-76
2024/03/10 11:56:25;;;;;;;0.10;0.10;;;;;;;15.92;37.73;90580.28;2071636;69;20520;-76
2024/03/10 12:02:38;;;;;;;0.68;0.10;;;;;;;15.50;38.50;90579.22;2071717;69;20120;-81
2024/03/10 12:05:05;;;;;;;0.15;0.10;;;;;;;15.28;39.16;90561.28;2071704;69;20663;-77
2024/03/10 12:07:33;;;;;;;7.38;0.20;;;;;;;15.63;39.41;90551.69;2065277;69;20193;-76
2024/03/10 12:09:58;;;;;;;0.20;0.10;;;;;;;15.37;38.79;90549.31;2071568;69;20141;-76
2024/03/10 12:12:30;;;;;;;0.10;0.10;;;;;;;15.31;39.29;90549.28;2071765;69;20160;-77
2024/03/10 12:14:57;;;;;;;2.80;0.20;;;;;;;15.41;38.90;90534.47;2071670;69;20144;-77
2024/03/10 12:17:22;;;;;;;0.63;0.40;;;;;;;16.94;36.95;90561.69;2071700;69;20293;-77
2024/03/10 12:19:48;;;;;;;0.95;0.60;;;;;;;16.57;36.78;90560.78;2071792;69;20232;-75
2024/03/10 12:22:14;;;;;;;1.15;0.88;;;;;;;16.01;37.56;90550.56;2071826;69;20179;-74
2024/03/10 12:24:46;;;;;;;3.42;0.30;;;;;;;15.75;38.16;90565.25;2068768;69;20161;-75
2024/03/10 12:27:13;;;;;;;1.98;0.10;;;;;;;15.92;38.47;90540.56;2071774;69;20142;-75
2024/03/10 12:29:45;;;;;;;1.35;0.32;;;;;;;15.67;38.50;90560.25;2071747;69;20175;-76
2024/03/10 12:32:13;;;;;;;0.20;0.20;;;;;;;15.38;39.96;90533.03;2071629;69;20159;-77
2024/03/10 12:34:38;;;;;;;0.22;0.00;;;;;;;15.59;38.75;90571.50;2068136;69;20145;-76
2024/03/10 12:37:05;;;;;;;0.20;0.20;;;;;;;16.52;38.54;90543.03;2071354;69;20225;-78
2024/03/10 12:39:31;;;;;;;0.30;0.30;;;;;;;18.23;36.08;90564.66;2068500;69;20256;-79
2024/03/10 12:41:57;;;;;;;1.20;0.10;;;;;;;16.89;37.11;90528.97;2071744;69;20200;-79
2024/03/10 12:44:23;;;;;;;1.20;0.10;;;;;;;16.67;37.17;90560.84;2071791;69;20144;-75